createdAt,value
2018-11-03T00:00:22.923Z,86.95
2018-11-03T00:00:49.085Z,87.14
2018-11-03T00:01:15.224Z,86.67
2018-11-03T00:01:41.351Z,86.57
2018-11-03T00:02:07.481Z,86.47
2018-11-03T00:02:33.618Z,86.47
2018-11-03T00:02:59.748Z,87.24
2018-11-03T00:03:25.895Z,86.86
2018-11-03T00:03:52.023Z,87.05
2018-11-03T00:04:18.183Z,87.05
2018-11-03T00:04:44.311Z,87.24
2018-11-03T00:05:10.470Z,86.38
2018-11-03T00:05:36.606Z,86.67
2018-11-03T00:06:02.734Z,86.19
2018-11-03T00:06:28.864Z,86.47
2018-11-03T00:06:54.999Z,86.76
2018-11-03T00:07:21.151Z,86.57
2018-11-03T00:07:47.306Z,86.67
2018-11-03T00:08:13.440Z,86.57
2018-11-03T00:08:39.586Z,86.67
2018-11-03T00:09:05.725Z,86.76
2018-11-03T00:09:31.875Z,87.05
2018-11-03T00:09:57.999Z,87.05
2018-11-03T00:10:24.134Z,86.67
2018-11-03T00:10:50.271Z,86.47
2018-11-03T00:11:16.401Z,86.29
2018-11-03T00:11:42.536Z,86.57
2018-11-03T00:12:08.662Z,86.38
2018-11-03T00:12:34.847Z,86.38
2018-11-03T00:13:00.982Z,86.38
2018-11-03T00:13:27.114Z,86.29
2018-11-03T00:13:53.262Z,86.29
2018-11-03T00:14:19.398Z,86.1
2018-11-03T00:14:45.527Z,86.29
2018-11-03T00:15:11.675Z,85.72
2018-11-03T00:15:37.826Z,86
2018-11-03T00:16:03.960Z,86.29
2018-11-03T00:16:30.112Z,86.47
2018-11-03T00:16:56.262Z,85.53
2018-11-03T00:17:22.412Z,85.81
2018-11-03T00:17:48.569Z,86.38
2018-11-03T00:18:14.723Z,86.19
2018-11-03T00:18:40.852Z,86.47
2018-11-03T00:19:06.986Z,86.19
2018-11-03T00:19:33.124Z,86
2018-11-03T00:19:59.250Z,85.53
2018-11-03T00:20:25.398Z,86.29
2018-11-03T00:20:51.535Z,86.29
2018-11-03T00:21:17.664Z,85.62
2018-11-03T00:21:43.802Z,86
2018-11-03T00:22:09.937Z,85.62
2018-11-03T00:22:36.068Z,86.47
2018-11-03T00:23:02.216Z,85.72
2018-11-03T00:23:28.355Z,86.38
2018-11-03T00:23:54.479Z,85.91
2018-11-03T00:24:20.627Z,86.29
2018-11-03T00:24:46.752Z,86
2018-11-03T00:25:12.883Z,86.38
2018-11-03T00:25:39.019Z,86.38
2018-11-03T00:26:05.147Z,86.57
2018-11-03T00:26:31.283Z,86.47
2018-11-03T00:26:57.413Z,86.47
2018-11-03T00:27:23.550Z,86.57
2018-11-03T00:27:49.699Z,86.53
2018-11-03T00:28:15.848Z,86.82
2018-11-03T00:28:42.085Z,87.43
2018-11-03T00:29:08.220Z,87.24
2018-11-03T00:29:34.354Z,86.76
2018-11-03T00:30:00.489Z,86.57
2018-11-03T00:30:26.614Z,86.57
2018-11-03T00:30:52.742Z,87.34
2018-11-03T00:31:18.874Z,87.19
2018-11-03T00:31:45.007Z,87.24
2018-11-03T00:32:11.158Z,87.24
2018-11-03T00:32:37.297Z,86.86
2018-11-03T00:33:03.420Z,86.91
2018-11-03T00:33:29.579Z,87.24
2018-11-03T00:33:55.709Z,86.95
2018-11-03T00:34:21.841Z,87.01
2018-11-03T00:34:47.972Z,87.05
2018-11-03T00:35:14.111Z,87.14
2018-11-03T00:35:40.233Z,87.19
2018-11-03T00:36:06.356Z,87.05
2018-11-03T00:36:32.515Z,87.24
2018-11-03T00:36:58.673Z,87.43
2018-11-03T00:37:24.805Z,86.86
2018-11-03T00:37:50.938Z,87.05
2018-11-03T00:38:17.073Z,87.05
2018-11-03T00:38:43.221Z,87.1
2018-11-03T00:39:09.411Z,86.91
2018-11-03T00:39:35.583Z,87.05
2018-11-03T00:40:01.678Z,86.82
2018-11-03T00:40:27.863Z,87.05
2018-11-03T00:40:53.983Z,86.86
2018-11-03T00:41:20.088Z,86.76
2018-11-03T00:41:46.223Z,87.05
2018-11-03T00:42:12.354Z,86.86
2018-11-03T00:42:38.549Z,87.24
2018-11-03T00:43:04.662Z,86.76
2018-11-03T00:43:30.812Z,86.19
2018-11-03T00:43:56.944Z,86.47
2018-11-03T00:44:23.071Z,86.57
2018-11-03T00:44:49.202Z,86.57
2018-11-03T00:45:15.357Z,86.29
2018-11-03T00:45:41.509Z,86.43
2018-11-03T00:46:07.643Z,86.24
2018-11-03T00:46:33.805Z,86.82
2018-11-03T00:46:59.952Z,87.29
2018-11-03T00:47:26.081Z,87.19
2018-11-03T00:47:52.215Z,86.91
2018-11-03T00:48:18.339Z,87.01
2018-11-03T00:48:44.495Z,86.86
2018-11-03T00:49:10.655Z,87.01
2018-11-03T00:49:36.784Z,87.05
2018-11-03T00:50:02.938Z,87.01
2018-11-03T00:50:29.094Z,87.01
2018-11-03T00:50:55.251Z,87.01
2018-11-03T00:51:21.424Z,87.1
2018-11-03T00:51:47.551Z,87.05
2018-11-03T00:52:13.683Z,86.82
2018-11-03T00:52:39.816Z,86.82
2018-11-03T00:53:05.986Z,87.01
2018-11-03T00:53:32.121Z,87.19
2018-11-03T00:53:58.260Z,86.82
2018-11-03T00:54:24.388Z,87.1
2018-11-03T00:54:50.516Z,87.19
2018-11-03T00:55:16.635Z,87.29
2018-11-03T00:55:42.786Z,87.38
2018-11-03T00:56:08.902Z,87.38
2018-11-03T00:56:35.039Z,86.82
2018-11-03T00:57:01.174Z,87.29
2018-11-03T00:57:27.296Z,87.38
2018-11-03T00:57:53.428Z,87.29
2018-11-03T00:58:19.558Z,87.29
2018-11-03T00:58:45.685Z,87.1
2018-11-03T00:59:11.840Z,87.01
2018-11-03T00:59:37.973Z,87.38
2018-11-03T01:00:04.133Z,87.76
2018-11-03T01:00:30.270Z,87.67
2018-11-03T01:00:56.398Z,88.15
2018-11-03T01:01:22.528Z,87.76
2018-11-03T01:01:48.659Z,87.57
2018-11-03T01:02:14.793Z,87.76
2018-11-03T01:02:40.918Z,88.05
2018-11-03T01:03:07.058Z,87.76
2018-11-03T01:03:33.217Z,87.86
2018-11-03T01:03:59.336Z,87.67
2018-11-03T01:04:25.486Z,87.67
2018-11-03T01:04:51.621Z,87.67
2018-11-03T01:05:17.764Z,87.19
2018-11-03T01:05:43.913Z,87.1
2018-11-03T01:06:10.060Z,87.29
2018-11-03T01:06:36.232Z,87.48
2018-11-03T01:07:02.411Z,87.57
2018-11-03T01:07:28.542Z,87.38
2018-11-03T01:07:54.712Z,87.76
2018-11-03T01:08:20.850Z,87.76
2018-11-03T01:08:46.981Z,87.76
2018-11-03T01:09:13.112Z,87.76
2018-11-03T01:09:39.249Z,87.67
2018-11-03T01:10:05.385Z,87.57
2018-11-03T01:10:31.521Z,87.48
2018-11-03T01:10:57.645Z,88.05
2018-11-03T01:11:23.773Z,87.76
2018-11-03T01:11:49.906Z,87.67
2018-11-03T01:12:16.086Z,88.24
2018-11-03T01:12:42.217Z,87.67
2018-11-03T01:13:08.377Z,87.76
2018-11-03T01:13:34.528Z,87.76
2018-11-03T01:14:00.653Z,88.05
2018-11-03T01:14:26.780Z,88.34
2018-11-03T01:14:52.905Z,88.24
2018-11-03T01:15:19.042Z,88.24
2018-11-03T01:15:45.164Z,87.86
2018-11-03T01:16:11.298Z,87.76
2018-11-03T01:16:37.429Z,88.15
2018-11-03T01:17:03.557Z,88.15
2018-11-03T01:17:29.696Z,88.43
2018-11-03T01:17:55.817Z,87.57
2018-11-03T01:18:21.947Z,87.76
2018-11-03T01:18:48.099Z,87.76
2018-11-03T01:19:14.231Z,87.76
2018-11-03T01:19:40.360Z,87.86
2018-11-03T01:20:06.492Z,87.95
2018-11-03T01:20:32.648Z,88.05
2018-11-03T01:20:58.784Z,87.76
2018-11-03T01:21:24.920Z,87.67
2018-11-03T01:21:51.041Z,87.67
2018-11-03T01:22:17.179Z,88.24
2018-11-03T01:22:43.308Z,88.43
2018-11-03T01:23:09.436Z,88.34
2018-11-03T01:23:35.629Z,88.53
2018-11-03T01:24:01.772Z,88.53
2018-11-03T01:24:27.929Z,88.62
2018-11-03T01:24:54.064Z,88.43
2018-11-03T01:25:20.194Z,88.24
2018-11-03T01:25:46.323Z,88.43
2018-11-03T01:26:12.453Z,88.43
2018-11-03T01:26:38.616Z,88.43
2018-11-03T01:27:04.772Z,88.53
2018-11-03T01:27:30.911Z,88.34
2018-11-03T01:27:57.034Z,88.53
2018-11-03T01:28:23.171Z,88.05
2018-11-03T01:28:49.346Z,88.43
2018-11-03T01:29:15.593Z,87.86
2018-11-03T01:29:41.685Z,87.76
2018-11-03T01:30:07.799Z,88.15
2018-11-03T01:30:33.960Z,87.95
2018-11-03T01:31:00.113Z,87.86
2018-11-03T01:31:26.239Z,87.86
2018-11-03T01:31:52.373Z,88.15
2018-11-03T01:32:18.534Z,88.43
2018-11-03T01:32:44.750Z,87.95
2018-11-03T01:33:10.795Z,88.62
2018-11-03T01:33:36.927Z,88.34
2018-11-03T01:34:03.085Z,88.24
2018-11-03T01:34:29.213Z,88.71
2018-11-03T01:34:55.373Z,88.81
2018-11-03T01:35:21.506Z,88.71
2018-11-03T01:35:47.638Z,88.62
2018-11-03T01:36:13.771Z,88.71
2018-11-03T01:36:39.903Z,88.53
2018-11-03T01:37:06.033Z,88.9
2018-11-03T01:37:32.160Z,88.62
2018-11-03T01:37:58.286Z,88.62
2018-11-03T01:38:24.425Z,88.43
2018-11-03T01:38:50.551Z,88.43
2018-11-03T01:39:16.709Z,88.43
2018-11-03T01:39:42.866Z,87.95
2018-11-03T01:40:09.033Z,88.53
2018-11-03T01:40:35.166Z,88.53
2018-11-03T01:41:01.341Z,88.53
2018-11-03T01:41:27.478Z,88.15
2018-11-03T01:41:53.649Z,88.34
2018-11-03T01:42:19.777Z,87.95
2018-11-03T01:42:45.937Z,88.05
2018-11-03T01:43:12.092Z,87.95
2018-11-03T01:43:38.218Z,88.24
2018-11-03T01:44:04.372Z,88.24
2018-11-03T01:44:30.504Z,88.34
2018-11-03T01:44:56.641Z,87.76
2018-11-03T01:45:22.770Z,87.76
2018-11-03T01:45:48.906Z,87.86
2018-11-03T01:46:15.028Z,88.05
2018-11-03T01:46:41.162Z,87.95
2018-11-03T01:47:07.288Z,88.05
2018-11-03T01:47:33.420Z,88.15
2018-11-03T01:47:59.554Z,87.95
2018-11-03T01:48:25.680Z,87.76
2018-11-03T01:48:51.818Z,88.34
2018-11-03T01:49:17.992Z,88.15
2018-11-03T01:49:44.127Z,88.81
2018-11-03T01:50:10.264Z,88.53
2018-11-03T01:50:36.390Z,88.62
2018-11-03T01:51:02.547Z,88.62
2018-11-03T01:51:28.696Z,88.62
2018-11-03T01:51:54.832Z,88.34
2018-11-03T01:52:20.979Z,88.34
2018-11-03T01:52:47.114Z,88.24
2018-11-03T01:53:13.252Z,88.24
2018-11-03T01:53:39.405Z,88.34
2018-11-03T01:54:05.534Z,88.43
2018-11-03T01:54:31.664Z,88.53
2018-11-03T01:54:57.792Z,88.53
2018-11-03T01:55:23.943Z,88.24
2018-11-03T01:55:50.077Z,88.43
2018-11-03T01:56:16.209Z,88.24
2018-11-03T01:56:42.364Z,88.53
2018-11-03T01:57:08.540Z,88.43
2018-11-03T01:57:34.631Z,88.34
2018-11-03T01:58:00.763Z,88.81
2018-11-03T01:58:26.902Z,88.34
2018-11-03T01:58:53.054Z,88.34
2018-11-03T01:59:19.187Z,88.34
2018-11-03T01:59:45.324Z,88.43
2018-11-03T02:00:11.460Z,88.43
2018-11-03T02:00:37.609Z,88.24
2018-11-03T02:01:03.735Z,88.39
2018-11-03T02:01:29.895Z,88.81
2018-11-03T02:01:56.073Z,88.53
2018-11-03T02:02:22.197Z,88.62
2018-11-03T02:02:48.330Z,88.62
2018-11-03T02:03:14.490Z,88.62
2018-11-03T02:03:40.624Z,88.34
2018-11-03T02:04:06.797Z,88.71
2018-11-03T02:04:32.966Z,88.62
2018-11-03T02:04:59.144Z,88.62
2018-11-03T02:05:25.292Z,88.24
2018-11-03T02:05:51.447Z,88.24
2018-11-03T02:06:17.570Z,88.53
2018-11-03T02:06:43.706Z,88.62
2018-11-03T02:07:09.822Z,88.53
2018-11-03T02:07:35.954Z,88.71
2018-11-03T02:08:02.087Z,88.71
2018-11-03T02:08:28.219Z,88.24
2018-11-03T02:08:54.348Z,88.67
2018-11-03T02:09:20.480Z,88.76
2018-11-03T02:09:46.610Z,89.05
2018-11-03T02:10:12.752Z,89.14
2018-11-03T02:10:38.877Z,88.76
2018-11-03T02:11:05.011Z,88.76
2018-11-03T02:11:31.170Z,89.14
2018-11-03T02:11:57.344Z,89.33
2018-11-03T02:12:23.486Z,88.86
2018-11-03T02:12:49.620Z,89.43
2018-11-03T02:13:15.778Z,89.53
2018-11-03T02:13:41.937Z,89.14
2018-11-03T02:14:08.087Z,88.95
2018-11-03T02:14:34.241Z,88.86
2018-11-03T02:15:00.398Z,89.62
2018-11-03T02:15:26.521Z,89.53
2018-11-03T02:15:52.654Z,89.43
2018-11-03T02:16:18.787Z,89.19
2018-11-03T02:16:44.916Z,89.19
2018-11-03T02:17:11.067Z,88.81
2018-11-03T02:17:37.205Z,89.38
2018-11-03T02:18:03.337Z,89
2018-11-03T02:18:29.468Z,89.28
2018-11-03T02:18:55.591Z,89.09
2018-11-03T02:19:21.732Z,88.81
2018-11-03T02:19:47.899Z,88.81
2018-11-03T02:20:14.029Z,88.81
2018-11-03T02:20:40.158Z,88.43
2018-11-03T02:21:06.287Z,88.81
2018-11-03T02:21:32.423Z,88.71
2018-11-03T02:21:58.554Z,88.34
2018-11-03T02:22:24.688Z,88.24
2018-11-03T02:22:50.835Z,88.62
2018-11-03T02:23:16.962Z,88.9
2018-11-03T02:23:43.095Z,88.9
2018-11-03T02:24:09.232Z,88.9
2018-11-03T02:24:35.380Z,88.71
2018-11-03T02:25:01.513Z,88.24
2018-11-03T02:25:27.661Z,88.15
2018-11-03T02:25:53.821Z,88.43
2018-11-03T02:26:19.953Z,88.62
2018-11-03T02:26:46.083Z,88.81
2018-11-03T02:27:12.235Z,88.9
2018-11-03T02:27:38.388Z,89
2018-11-03T02:28:04.536Z,88.81
2018-11-03T02:28:30.671Z,89.19
2018-11-03T02:28:56.794Z,89.14
2018-11-03T02:29:22.948Z,89.47
2018-11-03T02:29:49.079Z,88.81
2018-11-03T02:30:15.254Z,89.19
2018-11-03T02:30:41.428Z,88.62
2018-11-03T02:31:07.608Z,88.71
2018-11-03T02:31:33.800Z,88.71
2018-11-03T02:31:59.982Z,88.71
2018-11-03T02:32:26.112Z,88.71
2018-11-03T02:32:52.240Z,89.05
2018-11-03T02:33:18.374Z,89.24
2018-11-03T02:33:44.502Z,89.47
2018-11-03T02:34:10.649Z,88.95
2018-11-03T02:34:36.802Z,89.81
2018-11-03T02:35:02.933Z,89.53
2018-11-03T02:35:29.090Z,89.62
2018-11-03T02:35:55.216Z,89.81
2018-11-03T02:36:21.350Z,89.43
2018-11-03T02:36:47.503Z,89.86
2018-11-03T02:37:13.660Z,89.33
2018-11-03T02:37:39.836Z,89.62
2018-11-03T02:38:05.995Z,89.67
2018-11-03T02:38:32.145Z,89.86
2018-11-03T02:38:58.299Z,89.33
2018-11-03T02:39:24.440Z,89.38
2018-11-03T02:39:50.559Z,89.19
2018-11-03T02:40:16.689Z,89.43
2018-11-03T02:40:42.828Z,89.62
2018-11-03T02:41:08.980Z,89.62
2018-11-03T02:41:35.141Z,89.62
2018-11-03T02:42:01.274Z,90.05
2018-11-03T02:42:27.420Z,89.62
2018-11-03T02:42:53.572Z,89.81
2018-11-03T02:43:19.734Z,89.72
2018-11-03T02:43:45.889Z,89.72
2018-11-03T02:44:12.070Z,89.72
2018-11-03T02:44:38.220Z,89.9
2018-11-03T02:45:04.350Z,89.81
2018-11-03T02:45:30.483Z,89.43
2018-11-03T02:45:56.646Z,89.62
2018-11-03T02:46:22.793Z,89.67
2018-11-03T02:46:48.917Z,89.53
2018-11-03T02:47:15.051Z,89.47
2018-11-03T02:47:41.195Z,89.19
2018-11-03T02:48:07.354Z,89.28
2018-11-03T02:48:33.533Z,89.81
2018-11-03T02:48:59.710Z,89.53
2018-11-03T02:49:25.834Z,89.9
2018-11-03T02:49:52.012Z,89.62
2018-11-03T02:50:18.138Z,89.62
2018-11-03T02:50:44.270Z,89.62
2018-11-03T02:51:10.441Z,89.81
2018-11-03T02:51:36.566Z,89.81
2018-11-03T02:52:02.709Z,89.62
2018-11-03T02:52:28.886Z,90.09
2018-11-03T02:52:55.046Z,89.72
2018-11-03T02:53:21.181Z,90.28
2018-11-03T02:53:47.351Z,90.09
2018-11-03T02:54:13.521Z,90.28
2018-11-03T02:54:39.672Z,90.09
2018-11-03T02:55:05.794Z,89.9
2018-11-03T02:55:31.926Z,90
2018-11-03T02:55:58.093Z,90.19
2018-11-03T02:56:24.256Z,90
2018-11-03T02:56:50.380Z,90.09
2018-11-03T02:57:16.512Z,90.38
2018-11-03T02:57:42.649Z,90.28
2018-11-03T02:58:08.793Z,89.9
2018-11-03T02:58:34.903Z,90.47
2018-11-03T02:59:01.048Z,90.85
2018-11-03T02:59:27.228Z,90.76
2018-11-03T02:59:53.361Z,90.76
2018-11-03T03:00:19.572Z,90.95
2018-11-03T03:00:45.671Z,90.85
2018-11-03T03:01:11.825Z,90.66
2018-11-03T03:01:37.960Z,90.09
2018-11-03T03:02:04.087Z,90.28
2018-11-03T03:02:30.241Z,90.19
2018-11-03T03:02:56.362Z,90.19
2018-11-03T03:03:22.532Z,90.09
2018-11-03T03:03:48.690Z,90.38
2018-11-03T03:04:14.816Z,90.28
2018-11-03T03:04:40.970Z,90.38
2018-11-03T03:05:07.108Z,90.28
2018-11-03T03:05:33.235Z,90.47
2018-11-03T03:05:59.389Z,90.38
2018-11-03T03:06:25.523Z,90.19
2018-11-03T03:06:51.656Z,90.38
2018-11-03T03:07:17.781Z,90
2018-11-03T03:07:43.939Z,90
2018-11-03T03:08:10.082Z,89.62
2018-11-03T03:08:36.209Z,90
2018-11-03T03:09:02.363Z,89.81
2018-11-03T03:09:28.495Z,90.09
2018-11-03T03:09:54.631Z,90
2018-11-03T03:10:20.787Z,89.62
2018-11-03T03:10:46.926Z,89.9
2018-11-03T03:11:13.062Z,89.62
2018-11-03T03:11:39.193Z,89.53
2018-11-03T03:12:05.376Z,89.53
2018-11-03T03:12:31.518Z,89.62
2018-11-03T03:12:57.682Z,89.81
2018-11-03T03:13:23.836Z,89.81
2018-11-03T03:13:49.991Z,89.72
2018-11-03T03:14:16.114Z,89.9
2018-11-03T03:14:42.313Z,89.9
2018-11-03T03:15:08.413Z,90.28
2018-11-03T03:15:34.574Z,90.38
2018-11-03T03:16:00.702Z,89.9
2018-11-03T03:16:26.873Z,90.19
2018-11-03T03:16:53.049Z,90
2018-11-03T03:17:19.208Z,90.28
2018-11-03T03:17:45.345Z,90.66
2018-11-03T03:18:11.510Z,90.28
2018-11-03T03:18:37.675Z,90.09
2018-11-03T03:19:03.826Z,90.19
2018-11-03T03:19:29.961Z,89.81
2018-11-03T03:19:56.094Z,90.19
2018-11-03T03:20:22.225Z,90.09
2018-11-03T03:20:48.372Z,89.62
2018-11-03T03:21:14.536Z,89.9
2018-11-03T03:21:40.684Z,89.81
2018-11-03T03:22:06.837Z,90.19
2018-11-03T03:22:32.994Z,89.81
2018-11-03T03:22:59.121Z,89.9
2018-11-03T03:23:25.257Z,89.9
2018-11-03T03:23:51.378Z,89.53
2018-11-03T03:24:17.557Z,89.33
2018-11-03T03:24:43.686Z,89.33
2018-11-03T03:25:09.824Z,89.53
2018-11-03T03:25:35.950Z,89.33
2018-11-03T03:26:02.086Z,89.33
2018-11-03T03:26:28.230Z,89.33
2018-11-03T03:26:54.387Z,89.14
2018-11-03T03:27:20.512Z,89.33
2018-11-03T03:27:46.665Z,89.24
2018-11-03T03:28:12.800Z,89.62
2018-11-03T03:28:38.979Z,89.43
2018-11-03T03:29:05.185Z,89.14
2018-11-03T03:29:31.331Z,89.33
2018-11-03T03:29:57.355Z,88.95
2018-11-03T03:30:23.504Z,89.05
2018-11-03T03:30:49.668Z,89.05
2018-11-03T03:31:15.820Z,89.33
2018-11-03T03:31:41.957Z,89.14
2018-11-03T03:32:08.105Z,89.14
2018-11-03T03:32:34.240Z,89.24
2018-11-03T03:33:00.436Z,88.76
2018-11-03T03:33:26.566Z,89.24
2018-11-03T03:33:52.698Z,89.33
2018-11-03T03:34:18.827Z,88.95
2018-11-03T03:34:44.982Z,89.53
2018-11-03T03:35:11.131Z,89.14
2018-11-03T03:35:37.288Z,89.05
2018-11-03T03:36:03.448Z,89.24
2018-11-03T03:36:29.599Z,89.62
2018-11-03T03:36:55.729Z,89.53
2018-11-03T03:37:21.904Z,89.9
2018-11-03T03:37:48.007Z,90.09
2018-11-03T03:38:14.183Z,90.47
2018-11-03T03:38:40.314Z,90.28
2018-11-03T03:39:06.458Z,90.76
2018-11-03T03:39:32.585Z,90.95
2018-11-03T03:39:58.759Z,90.57
2018-11-03T03:40:24.888Z,90.28
2018-11-03T03:40:51.046Z,90.95
2018-11-03T03:41:17.176Z,91.14
2018-11-03T03:41:43.305Z,91.24
2018-11-03T03:42:09.441Z,91.24
2018-11-03T03:42:35.629Z,91.71
2018-11-03T03:43:01.788Z,91.52
2018-11-03T03:43:27.921Z,91.61
2018-11-03T03:43:54.073Z,91.42
2018-11-03T03:44:20.252Z,91.61
2018-11-03T03:44:46.387Z,91.8
2018-11-03T03:45:12.520Z,91.52
2018-11-03T03:45:38.644Z,91.14
2018-11-03T03:46:04.849Z,90.95
2018-11-03T03:46:30.972Z,90.38
2018-11-03T03:46:57.110Z,90.76
2018-11-03T03:47:23.238Z,90.85
2018-11-03T03:47:49.420Z,90.76
2018-11-03T03:48:15.546Z,90
2018-11-03T03:48:41.692Z,90.28
2018-11-03T03:49:07.858Z,90.47
2018-11-03T03:49:33.994Z,90.19
2018-11-03T03:50:00.118Z,89.72
2018-11-03T03:50:26.279Z,89.72
2018-11-03T03:50:52.404Z,89.72
2018-11-03T03:51:18.533Z,89.72
2018-11-03T03:51:44.697Z,89.9
2018-11-03T03:52:10.828Z,89.81
2018-11-03T03:52:36.954Z,89.81
2018-11-03T03:53:03.090Z,89.72
2018-11-03T03:53:29.263Z,89.62
2018-11-03T03:53:55.414Z,90.38
2018-11-03T03:54:21.572Z,90.28
2018-11-03T03:54:47.705Z,90.28
2018-11-03T03:55:13.830Z,90.28
2018-11-03T03:55:39.964Z,90.38
2018-11-03T03:56:06.093Z,90.76
2018-11-03T03:56:32.214Z,90.76
2018-11-03T03:56:58.371Z,90.85
2018-11-03T03:57:24.497Z,90.28
2018-11-03T03:57:50.631Z,90.28
2018-11-03T03:58:16.759Z,90.28
2018-11-03T03:58:42.935Z,90.47
2018-11-03T03:59:09.090Z,90.09
2018-11-03T03:59:35.252Z,90.28
2018-11-03T04:00:01.370Z,90.38
2018-11-03T04:00:27.522Z,90.76
2018-11-03T04:00:53.658Z,90.76
2018-11-03T04:01:19.784Z,90.47
2018-11-03T04:01:45.946Z,90.19
2018-11-03T04:02:12.096Z,90.85
2018-11-03T04:02:38.234Z,90.66
2018-11-03T04:03:04.392Z,90.47
2018-11-03T04:03:30.548Z,90.19
2018-11-03T04:03:56.724Z,90.66
2018-11-03T04:04:22.822Z,90.66
2018-11-03T04:04:49.003Z,90.66
2018-11-03T04:05:15.152Z,90.76
2018-11-03T04:05:41.281Z,90.76
2018-11-03T04:06:07.415Z,90.19
2018-11-03T04:06:33.592Z,90.57
2018-11-03T04:06:59.750Z,90.95
2018-11-03T04:07:25.877Z,90.95
2018-11-03T04:07:52.034Z,90.28
2018-11-03T04:08:18.188Z,90.28
2018-11-03T04:08:44.328Z,90.19
2018-11-03T04:09:10.471Z,90.47
2018-11-03T04:09:36.601Z,90.09
2018-11-03T04:10:02.731Z,90.28
2018-11-03T04:10:28.860Z,90.09
2018-11-03T04:10:54.999Z,90.09
2018-11-03T04:11:21.123Z,90.19
2018-11-03T04:11:47.258Z,89.9
2018-11-03T04:12:13.389Z,89.81
2018-11-03T04:12:39.539Z,90.19
2018-11-03T04:13:05.701Z,90
2018-11-03T04:13:31.832Z,89.72
2018-11-03T04:13:57.964Z,90.19
2018-11-03T04:14:24.093Z,89.9
2018-11-03T04:14:50.239Z,90.28
2018-11-03T04:15:16.413Z,90.19
2018-11-03T04:15:42.548Z,90.85
2018-11-03T04:16:08.681Z,90.95
2018-11-03T04:16:34.826Z,90.57
2018-11-03T04:17:00.965Z,90.28
2018-11-03T04:17:27.123Z,90.66
2018-11-03T04:17:53.257Z,90.95
2018-11-03T04:18:19.413Z,90.57
2018-11-03T04:18:45.549Z,90.28
2018-11-03T04:19:11.656Z,90.19
2018-11-03T04:19:37.779Z,90.09
2018-11-03T04:20:03.914Z,90.19
2018-11-03T04:20:30.042Z,90.09
2018-11-03T04:20:56.177Z,90.28
2018-11-03T04:21:22.320Z,90.09
2018-11-03T04:21:48.479Z,89.9
2018-11-03T04:22:14.648Z,90.09
2018-11-03T04:22:40.818Z,90.47
2018-11-03T04:23:06.938Z,90.47
2018-11-03T04:23:33.112Z,90.66
2018-11-03T04:23:59.247Z,90.76
2018-11-03T04:24:25.403Z,90.66
2018-11-03T04:24:51.550Z,90.28
2018-11-03T04:25:17.712Z,90.09
2018-11-03T04:25:43.833Z,90.09
2018-11-03T04:26:09.967Z,89.81
2018-11-03T04:26:36.097Z,90.38
2018-11-03T04:27:02.242Z,90
2018-11-03T04:27:28.429Z,90.95
2018-11-03T04:27:54.574Z,90.38
2018-11-03T04:28:20.710Z,90.66
2018-11-03T04:28:46.830Z,90.66
2018-11-03T04:29:12.994Z,90.28
2018-11-03T04:29:39.150Z,90.38
2018-11-03T04:30:05.276Z,90.19
2018-11-03T04:30:31.399Z,90.19
2018-11-03T04:30:57.557Z,90.38
2018-11-03T04:31:23.682Z,90.19
2018-11-03T04:31:49.837Z,90.38
2018-11-03T04:32:15.972Z,90.47
2018-11-03T04:32:42.115Z,90.19
2018-11-03T04:33:08.250Z,90.09
2018-11-03T04:33:34.375Z,90.57
2018-11-03T04:34:00.505Z,90.28
2018-11-03T04:34:26.664Z,90.47
2018-11-03T04:34:52.818Z,90
2018-11-03T04:35:18.968Z,89.81
2018-11-03T04:35:45.092Z,89.81
2018-11-03T04:36:11.226Z,89.81
2018-11-03T04:36:37.358Z,89.62
2018-11-03T04:37:03.510Z,89.62
2018-11-03T04:37:29.687Z,89.43
2018-11-03T04:37:55.847Z,89.62
2018-11-03T04:38:21.984Z,89.81
2018-11-03T04:38:48.103Z,89.81
2018-11-03T04:39:14.236Z,89.43
2018-11-03T04:39:40.362Z,89.33
2018-11-03T04:40:06.544Z,89.62
2018-11-03T04:40:32.692Z,90
2018-11-03T04:40:58.819Z,89.9
2018-11-03T04:41:24.984Z,89.81
2018-11-03T04:41:51.148Z,89.72
2018-11-03T04:42:17.280Z,89.81
2018-11-03T04:42:43.418Z,90.09
2018-11-03T04:43:09.571Z,90
2018-11-03T04:43:35.704Z,90.38
2018-11-03T04:44:01.829Z,90.09
2018-11-03T04:44:27.986Z,89.81
2018-11-03T04:44:54.111Z,90.19
2018-11-03T04:45:20.333Z,89.72
2018-11-03T04:45:46.426Z,90
2018-11-03T04:46:12.583Z,89.81
2018-11-03T04:46:38.709Z,89.62
2018-11-03T04:47:04.865Z,89.62
2018-11-03T04:47:31.044Z,89.81
2018-11-03T04:47:57.181Z,89.53
2018-11-03T04:48:23.319Z,89.62
2018-11-03T04:48:49.458Z,89.81
2018-11-03T04:49:15.601Z,89.53
2018-11-03T04:49:41.740Z,89.62
2018-11-03T04:50:07.890Z,89.9
2018-11-03T04:50:34.077Z,89.62
2018-11-03T04:51:00.200Z,89.72
2018-11-03T04:51:26.350Z,89.62
2018-11-03T04:51:52.479Z,90
2018-11-03T04:52:18.613Z,89.81
2018-11-03T04:52:44.741Z,90
2018-11-03T04:53:10.867Z,89.43
2018-11-03T04:53:37.052Z,89.9
2018-11-03T04:54:03.180Z,89.14
2018-11-03T04:54:29.330Z,89.14
2018-11-03T04:54:55.462Z,89.33
2018-11-03T04:55:21.731Z,89.33
2018-11-03T04:55:47.757Z,89.62
2018-11-03T04:56:13.867Z,89.81
2018-11-03T04:56:40.003Z,90.09
2018-11-03T04:57:06.133Z,90
2018-11-03T04:57:32.258Z,90.28
2018-11-03T04:57:58.384Z,90.47
2018-11-03T04:58:24.522Z,90.38
2018-11-03T04:58:50.684Z,90.66
2018-11-03T04:59:16.839Z,90.19
2018-11-03T04:59:42.969Z,90.19
2018-11-03T05:00:09.097Z,90.19
2018-11-03T05:00:35.226Z,90.19
2018-11-03T05:01:01.357Z,90
2018-11-03T05:01:27.484Z,90.28
2018-11-03T05:01:53.609Z,90.28
2018-11-03T05:02:19.747Z,90.28
2018-11-03T05:02:45.884Z,89.9
2018-11-03T05:03:12.007Z,90.09
2018-11-03T05:03:38.145Z,90.28
2018-11-03T05:04:04.267Z,90.28
2018-11-03T05:04:30.404Z,90
2018-11-03T05:04:56.529Z,90.38
2018-11-03T05:05:22.663Z,90.76
2018-11-03T05:05:48.818Z,90.76
2018-11-03T05:06:14.965Z,90.38
2018-11-03T05:06:41.117Z,90.19
2018-11-03T05:07:07.250Z,90.85
2018-11-03T05:07:33.383Z,90.76
2018-11-03T05:07:59.533Z,91.04
2018-11-03T05:08:25.664Z,91.8
2018-11-03T05:08:51.845Z,91.61
2018-11-03T05:09:17.996Z,91.42
2018-11-03T05:09:44.195Z,91.04
2018-11-03T05:10:10.294Z,91.42
2018-11-03T05:10:36.565Z,91.52
2018-11-03T05:11:02.560Z,91.04
2018-11-03T05:11:28.690Z,91.33
2018-11-03T05:11:54.816Z,91.14
2018-11-03T05:12:20.953Z,91.24
2018-11-03T05:12:47.106Z,91.61
2018-11-03T05:13:13.236Z,91.61
2018-11-03T05:13:39.360Z,91.61
2018-11-03T05:14:05.511Z,91.04
2018-11-03T05:14:31.670Z,90.95
2018-11-03T05:14:57.803Z,91.14
2018-11-03T05:15:23.936Z,91.14
2018-11-03T05:15:50.079Z,90.66
2018-11-03T05:16:16.212Z,91.14
2018-11-03T05:16:42.356Z,91.14
2018-11-03T05:17:08.467Z,91.61
2018-11-03T05:17:34.613Z,91.52
2018-11-03T05:18:00.751Z,91.14
2018-11-03T05:18:26.888Z,91.33
2018-11-03T05:18:53.029Z,91.89
2018-11-03T05:19:19.164Z,91.71
2018-11-03T05:19:45.296Z,91.99
2018-11-03T05:20:11.453Z,92.37
2018-11-03T05:20:37.575Z,92.47
2018-11-03T05:21:03.722Z,92.66
2018-11-03T05:21:30.039Z,92.66
2018-11-03T05:21:55.990Z,92.37
2018-11-03T05:22:22.134Z,92.28
2018-11-03T05:22:48.258Z,92.28
2018-11-03T05:23:14.386Z,92.18
2018-11-03T05:23:40.523Z,91.89
2018-11-03T05:24:06.652Z,91.71
2018-11-03T05:24:32.827Z,91.24
2018-11-03T05:24:58.953Z,91.89
2018-11-03T05:25:25.096Z,91.66
2018-11-03T05:25:51.240Z,91.71
2018-11-03T05:26:17.375Z,91.71
2018-11-03T05:26:43.525Z,91.33
2018-11-03T05:27:09.675Z,91.61
2018-11-03T05:27:35.801Z,91.99
2018-11-03T05:28:01.940Z,91.99
2018-11-03T05:28:28.088Z,92.09
2018-11-03T05:28:54.222Z,92.18
2018-11-03T05:29:20.383Z,91.89
2018-11-03T05:29:46.480Z,91.61
2018-11-03T05:30:12.611Z,91.33
2018-11-03T05:30:38.787Z,91.61
2018-11-03T05:31:04.970Z,91.33
2018-11-03T05:31:31.099Z,91.24
2018-11-03T05:31:57.232Z,91.33
2018-11-03T05:32:23.364Z,91.8
2018-11-03T05:32:49.493Z,91.8
2018-11-03T05:33:15.632Z,90.95
2018-11-03T05:33:41.759Z,90.76
2018-11-03T05:34:07.917Z,90.95
2018-11-03T05:34:34.052Z,91.24
2018-11-03T05:35:00.205Z,91.33
2018-11-03T05:35:26.343Z,91.14
2018-11-03T05:35:52.496Z,90.85
2018-11-03T05:36:18.621Z,90.47
2018-11-03T05:36:44.761Z,90.28
2018-11-03T05:37:10.926Z,90.85
2018-11-03T05:37:37.060Z,90.09
2018-11-03T05:38:03.186Z,90.38
2018-11-03T05:38:29.320Z,90.19